• Join FlightAware (Why Join?)
  • Login
  • US Flag 
06:49AM EDT


 

Airport Tracker/Info


-or-


 

Live Flight TrackerFlight Track Log ✈ USC105 ✈ 24-Apr-2013 ✈ KYIP - KLCK

Flight Track Log - Related Links

Times and Time Zones

All times are in EDT time to prevent confusion due to time zone crossing. See the USC105 flight status page for this flight to view local times or setup timezone preferences in your user account.

Time Position Orientation Groundspeed Altitude Reporting Facility
EDT Latitude Longitude Course Direction KTS MPH feet Rate Location/Type
06:54AM 42.2414 -83.5572 275° West 103 119 2,000  Level FAA TRACON SMA TRACON (SMA)
06:55AM 42.2381 -83.5703 251° West 146 168 2,300 1,140 Climbing FAA TRACON SMA TRACON (SMA)
06:55AM 42.2261 -83.5831 218° Southwest 150 173 2,800 1,380 Climbing FAA TRACON SMA TRACON (SMA)
06:55AM 42.2183 -83.5906 216° Southwest 140 161 3,200 1,320 Climbing FAA TRACON SMA TRACON (SMA)
06:56AM 42.2089 -83.6039 226° Southwest 133 153 3,700 1,500 Climbing FAA TRACON SMA TRACON (SMA)
06:56AM 42.2008 -83.6136 222° Southwest 126 145 4,200 1,500 Climbing FAA TRACON SMA TRACON (SMA)
06:56AM 42.1911 -83.6242 219° Southwest 121 139 4,700 1,140 Climbing FAA TRACON SMA TRACON (SMA)
06:57AM 42.1828 -83.6317 214° Southwest 118 136 5,000 420 Climbing FAA TRACON SMA TRACON (SMA)
06:57AM 42.1700 -83.6419 211° Southwest 146 168 5,000  Level FAA TRACON SMA TRACON (SMA)
06:57AM 42.1594 -83.6528 217° Southwest 157 181 5,000  Level FAA TRACON SMA TRACON (SMA)
06:58AM 42.1483 -83.6656 220° Southwest 168 193 5,000  Level FAA TRACON SMA TRACON (SMA)
06:58AM 42.1322 -83.6772 208° Southwest 171 197 5,000  Level FAA TRACON SMA TRACON (SMA)
06:58AM 42.1183 -83.6836 199° South 178 205 5,000  Level FAA TRACON SMA TRACON (SMA)
06:59AM 42.1044 -83.6897 198° South 173 199 5,000  Level FAA TRACON SMA TRACON (SMA)
06:59AM 42.0867 -83.6969 197° South 172 198 5,000  Level FAA TRACON SMA TRACON (SMA)
06:59AM 42.0722 -83.7025 196° South 173 199 5,000 -180 Level FAA TRACON SMA TRACON (SMA)
07:00AM 42.0581 -83.7083 197° South 173 199 4,900  Descending FAA TRACON SMA TRACON (SMA)
07:00AM 42.0403 -83.7153 196° South 173 199 5,000  Climbing FAA TRACON SMA TRACON (SMA)
07:00AM 42.0261 -83.7211 197° South 172 198 4,900  Descending FAA TRACON SMA TRACON (SMA)
07:01AM 42.0122 -83.7275 199° South 172 198 5,000 120 Climbing FAA TRACON SMA TRACON (SMA)
07:01AM 41.9944 -83.7306 187° South 171 197 5,000 -180 Level FAA TRACON SMA TRACON (SMA)
07:01AM 41.9794 -83.7261 168° South 174 200 4,900 -180 Descending FAA TRACON SMA TRACON (SMA)
07:02AM 41.9644 -83.7203 164° South 176 203 4,900 120 Level FAA TRACON SMA TRACON (SMA)
07:02AM 41.9467 -83.7133 164° South 178 205 5,000  Climbing FAA TRACON SMA TRACON (SMA)
07:02AM 41.9325 -83.7078 164° South 175 201 4,900 -180 Descending FAA TRACON SMA TRACON (SMA)
07:03AM 41.9175 -83.7019 164° South 174 200 4,900  Level FAA TRACON SMA TRACON (SMA)
07:03AM 41.9006 -83.6950 163° South 173 199 4,900  Level FAA TRACON SMA TRACON (SMA)
07:03AM 41.8869 -83.6892 162° South 173 199 4,900  Level FAA TRACON SMA TRACON (SMA)
07:04AM 41.8694 -83.6817 162° South 172 198 4,900 120 Level FAA TRACON SMA TRACON (SMA)
07:04AM 41.8567 -83.6758 161° South 171 197 5,000 600 Climbing FAA TRACON SMA TRACON (SMA)
07:04AM 41.8419 -83.6678 158° South 187 215 5,300 720 Climbing FAA TRACON SMA TRACON (SMA)
07:05AM 41.8297 -83.6622 161° South 171 197 5,500 420 Climbing FAA TRACON SMA TRACON (SMA)
07:05AM 41.8133 -83.6572 167° South 156 180 5,600 300 Climbing FAA TRACON SMA TRACON (SMA)
07:05AM 41.7997 -83.6536 169° South 162 186 5,700 300 Climbing FAA TRACON SMA TRACON (SMA)
07:06AM 41.7858 -83.6508 172° South 157 181 5,800 300 Climbing FAA TRACON SMA TRACON (SMA)
07:06AM 41.7681 -83.6444 165° South 170 196 5,900 240 Climbing FAA TRACON SMA TRACON (SMA)
07:06AM 41.7542 -83.6419 172° South 165 190 6,000 300 Climbing FAA TRACON SMA TRACON (SMA)
07:07AM 41.7403 -83.6378 167° South 167 192 6,100 420 Climbing FAA TRACON SMA TRACON (SMA)
07:07AM 41.7228 -83.6325 167° South 167 192 6,300 420 Climbing FAA TRACON SMA TRACON (SMA)
07:07AM 41.7086 -83.6275 165° South 169 194 6,400 300 Climbing FAA TRACON SMA TRACON (SMA)
07:08AM 41.6947 -83.6219 163° South 169 194 6,500 420 Climbing FAA TRACON SMA TRACON (SMA)
07:08AM 41.6772 -83.6153 164° South 169 194 6,700 420 Climbing FAA TRACON SMA TRACON (SMA)
07:08AM 41.6636 -83.6097 163° South 168 193 6,800 300 Climbing FAA TRACON SMA TRACON (SMA)
07:09AM 41.6497 -83.6036 162° South 168 193 6,900 300 Climbing FAA TRACON SMA TRACON (SMA)
07:09AM 41.6322 -83.5967 163° South 170 196 7,000 120 Climbing FAA TRACON SMA TRACON (SMA)
07:09AM 41.6178 -83.5911 164° South 172 198 7,000  Level FAA TRACON SMA TRACON (SMA)
07:10AM 41.6028 -83.5858 165° South 179 206 7,000  Level FAA TRACON SMA TRACON (SMA)
07:10AM 41.5836 -83.5783 164° South 183 211 7,000  Level FAA TRACON SMA TRACON (SMA)
07:10AM 41.5683 -83.5736 167° South 181 208 7,000  Level FAA TRACON SMA TRACON (SMA)
07:11AM 41.5542 -83.5692 167° South 177 204 7,000  Level FAA TRACON SMA TRACON (SMA)
07:11AM 41.5364 -83.5606 160° South 177 204 7,000  Level FAA TRACON SMA TRACON (SMA)
07:11AM 41.5219 -83.5539 161° South 177 204 7,000  Level FAA TRACON SMA TRACON (SMA)
07:12AM 41.5075 -83.5483 164° South 176 203 7,000  Level FAA TRACON SMA TRACON (SMA)
07:12AM 41.4897 -83.5417 164° South 175 201 7,000  Level FAA TRACON SMA TRACON (SMA)
07:12AM 41.4753 -83.5367 165° South 172 198 7,000  Level FAA TRACON SMA TRACON (SMA)
07:13AM 41.4611 -83.5319 166° South 172 198 7,000  Level FAA TRACON SMA TRACON (SMA)
07:13AM 41.4433 -83.5244 162° South 173 199 7,000  Level FAA TRACON SMA TRACON (SMA)
07:13AM 41.4294 -83.5183 162° South 172 198 7,000  Level FAA TRACON SMA TRACON (SMA)
07:14AM 41.4156 -83.5136 166° South 169 194 7,000  Level FAA TRACON SMA TRACON (SMA)
07:14AM 41.3983 -83.5064 163° South 169 194 7,000  Level FAA TRACON SMA TRACON (SMA)
07:14AM 41.3842 -83.5008 164° South 169 194 7,000  Level FAA TRACON SMA TRACON (SMA)
07:15AM 41.3700 -83.4964 167° South 170 196 7,000  Level FAA TRACON SMA TRACON (SMA)
07:15AM 41.3522 -83.4903 166° South 171 197 7,000  Level FAA TRACON SMA TRACON (SMA)
07:15AM 41.3414 -83.4853 161° South 172 198 7,000  Level FAA TRACON SMA TRACON (SMA)
07:16AM 41.3414 -83.4853 124° Southeast 172 198 7,000  Level FAA TRACON SMA TRACON (SMA)
07:18AM 41.2854 -83.4644 164° South  Level Estimated
07:25AM 41.0214 -83.3663 164° South  Level Estimated
07:26AM 40.9836 -83.3523 164° South  Level Estimated
07:27AM 40.9459 -83.3384 164° South  Level Estimated
07:28AM 40.9082 -83.3245 164° South  Level Estimated
07:29AM 40.8704 -83.3106 164° South  Level Estimated
07:30AM 40.8327 -83.2967 164° South  Level Estimated
07:31AM 40.7950 -83.2828 164° South  Level Estimated
07:32AM 40.7572 -83.2690 164° South  Level Estimated
07:33AM 40.7195 -83.2551 164° South  Level Estimated
07:34AM 40.6817 -83.2413 164° South  Level Estimated
07:35AM 40.6440 -83.2275 164° South  Level Estimated
07:35AM 40.4269 -83.1314 165° South 197 227 7,000  Level Indianapolis Center
07:36AM 40.6062 -83.2137 164° South  Level Estimated
07:36AM 40.3936 -83.0700 125° Southeast 221 254 7,000  Level Indianapolis Center
07:37AM 40.5685 -83.1999 165° South  Level Estimated
07:37AM 40.3600 -83.0086 126° Southeast 204 235 7,000  Level Indianapolis Center
07:38AM 40.5307 -83.1862 165° South  Level Estimated
07:38AM 40.3258 -82.9253 118° Southeast 209 241 7,000  Level Indianapolis Center
07:39AM 40.4930 -83.1724 165° South  Level Estimated
07:39AM 40.3044 -82.8708 117° Southeast 206 237 7,000  Level Indianapolis Center
07:40AM 40.4552 -83.1587 165° South  Level Estimated
07:40AM 40.2589 -82.8303 146° Southeast 188 216 6,400  Level Indianapolis Center
07:41AM 40.2164 -82.8050 156° South 191 220 5,900 -720 Descending Indianapolis Center
07:42AM 40.1761 -82.7881 162° South 183 211 5,200 -960 Descending Indianapolis Center
07:43AM 40.1161 -82.7889 181° South 184 212 4,000 -600 Descending Indianapolis Center
07:44AM 40.0719 -82.7850 176° South 173 199 4,000  Level Indianapolis Center
07:45AM 40.0331 -82.7839 179° South 155 178 4,000  Level Indianapolis Center
07:46AM 40.0006 -82.7819 177° South 131 151 4,000 -60 Level Indianapolis Center
07:47AM 39.9675 -82.7783 175° South 128 147 3,900 -420 Descending Indianapolis Center
07:48AM 39.9306 -82.7986 203° Southwest 127 146 3,200 -540 Descending Indianapolis Center
07:49AM 39.9014 -82.8250 215° Southwest 126 145 2,700 -540 Descending Indianapolis Center
07:50AM 39.8767 -82.8525 220° Southwest 119 137 2,200 -540 Descending Indianapolis Center
07:51AM 39.8517 -82.8822 222° Southwest 127 146 1,700 -660 Descending Indianapolis Center
07:52AM 39.8311 -82.9069 223° Southwest 112 129 1,000 -600 Descending Indianapolis Center
07:52AM 39.8250 -82.9142 222° Southwest 117 135 1,000  Level Indianapolis Center